sensor_id;sensor_type;location;lat;lon;timestamp;P1;durP1;ratioP1;P2;durP2;ratioP2
9124;SDS011;4597;48.730;9.114;2022-10-31T00:01:25;8.27;;;6.47;;
9124;SDS011;4597;48.730;9.114;2022-10-31T00:03:58;8.77;;;6.40;;
9124;SDS011;4597;48.730;9.114;2022-10-31T00:06:24;10.30;;;6.43;;
9124;SDS011;4597;48.730;9.114;2022-10-31T00:08:55;7.73;;;6.57;;
9124;SDS011;4597;48.730;9.114;2022-10-31T00:11:23;8.17;;;6.33;;
9124;SDS011;4597;48.730;9.114;2022-10-31T00:13:49;6.43;;;5.83;;
9124;SDS011;4597;48.730;9.114;2022-10-31T00:16:19;7.97;;;6.43;;
9124;SDS011;4597;48.730;9.114;2022-10-31T00:18:50;6.17;;;5.57;;
9124;SDS011;4597;48.730;9.114;2022-10-31T00:21:17;8.90;;;6.27;;
9124;SDS011;4597;48.730;9.114;2022-10-31T00:23:43;7.73;;;6.17;;
9124;SDS011;4597;48.730;9.114;2022-10-31T00:26:08;8.13;;;6.00;;
9124;SDS011;4597;48.730;9.114;2022-10-31T00:28:34;6.20;;;5.60;;
9124;SDS011;4597;48.730;9.114;2022-10-31T00:31:03;6.70;;;5.90;;
9124;SDS011;4597;48.730;9.114;2022-10-31T00:33:32;6.50;;;5.90;;
9124;SDS011;4597;48.730;9.114;2022-10-31T00:35:58;6.00;;;5.50;;
9124;SDS011;4597;48.730;9.114;2022-10-31T00:38:24;10.77;;;6.23;;
9124;SDS011;4597;48.730;9.114;2022-10-31T00:40:50;7.37;;;6.20;;
9124;SDS011;4597;48.730;9.114;2022-10-31T00:43:15;5.53;;;5.00;;
9124;SDS011;4597;48.730;9.114;2022-10-31T00:45:41;7.47;;;5.27;;
9124;SDS011;4597;48.730;9.114;2022-10-31T00:48:07;5.33;;;4.80;;
9124;SDS011;4597;48.730;9.114;2022-10-31T00:50:33;5.40;;;4.87;;
9124;SDS011;4597;48.730;9.114;2022-10-31T00:52:59;6.47;;;5.13;;
9124;SDS011;4597;48.730;9.114;2022-10-31T00:55:25;7.70;;;5.30;;
9124;SDS011;4597;48.730;9.114;2022-10-31T00:57:50;5.97;;;4.83;;
9124;SDS011;4597;48.730;9.114;2022-10-31T01:00:16;7.17;;;4.43;;
9124;SDS011;4597;48.730;9.114;2022-10-31T01:02:41;6.47;;;4.87;;
9124;SDS011;4597;48.730;9.114;2022-10-31T01:05:07;6.83;;;4.50;;
9124;SDS011;4597;48.730;9.114;2022-10-31T01:07:36;5.37;;;4.57;;
9124;SDS011;4597;48.730;9.114;2022-10-31T01:10:03;7.40;;;4.67;;
9124;SDS011;4597;48.730;9.114;2022-10-31T01:12:29;6.90;;;5.27;;
9124;SDS011;4597;48.730;9.114;2022-10-31T01:14:55;8.40;;;5.40;;
9124;SDS011;4597;48.730;9.114;2022-10-31T01:17:20;7.30;;;5.63;;
9124;SDS011;4597;48.730;9.114;2022-10-31T01:19:46;6.80;;;5.10;;
9124;SDS011;4597;48.730;9.114;2022-10-31T01:22:11;7.13;;;5.53;;
9124;SDS011;4597;48.730;9.114;2022-10-31T01:24:37;6.33;;;5.27;;
9124;SDS011;4597;48.730;9.114;2022-10-31T01:27:02;6.63;;;5.27;;
9124;SDS011;4597;48.730;9.114;2022-10-31T01:29:28;5.13;;;4.37;;
9124;SDS011;4597;48.730;9.114;2022-10-31T01:31:54;4.77;;;4.30;;
9124;SDS011;4597;48.730;9.114;2022-10-31T01:34:19;6.00;;;4.33;;
9124;SDS011;4597;48.730;9.114;2022-10-31T01:36:45;5.83;;;4.53;;
9124;SDS011;4597;48.730;9.114;2022-10-31T01:39:15;6.43;;;4.13;;
9124;SDS011;4597;48.730;9.114;2022-10-31T01:41:43;5.80;;;4.37;;
9124;SDS011;4597;48.730;9.114;2022-10-31T01:46:43;5.37;;;4.30;;
9124;SDS011;4597;48.730;9.114;2022-10-31T01:52:09;6.40;;;4.23;;
9124;SDS011;4597;48.730;9.114;2022-10-31T01:54:39;6.57;;;4.10;;
9124;SDS011;4597;48.730;9.114;2022-10-31T01:57:08;5.37;;;4.00;;
9124;SDS011;4597;48.730;9.114;2022-10-31T01:59:38;5.63;;;4.03;;
9124;SDS011;4597;48.730;9.114;2022-10-31T02:02:07;4.37;;;3.77;;
9124;SDS011;4597;48.730;9.114;2022-10-31T02:04:33;7.50;;;4.30;;
9124;SDS011;4597;48.730;9.114;2022-10-31T02:07:02;4.73;;;4.20;;
9124;SDS011;4597;48.730;9.114;2022-10-31T02:09:31;4.03;;;3.63;;
9124;SDS011;4597;48.730;9.114;2022-10-31T02:11:58;5.37;;;4.13;;
9124;SDS011;4597;48.730;9.114;2022-10-31T02:14:25;6.40;;;4.43;;
9124;SDS011;4597;48.730;9.114;2022-10-31T02:16:53;4.40;;;3.90;;
9124;SDS011;4597;48.730;9.114;2022-10-31T02:19:31;4.63;;;4.00;;
9124;SDS011;4597;48.730;9.114;2022-10-31T02:22:26;7.70;;;3.83;;
9124;SDS011;4597;48.730;9.114;2022-10-31T02:33:38;5.00;;;4.37;;
9124;SDS011;4597;48.730;9.114;2022-10-31T02:36:11;5.73;;;3.53;;
9124;SDS011;4597;48.730;9.114;2022-10-31T02:39:02;5.57;;;3.97;;
9124;SDS011;4597;48.730;9.114;2022-10-31T02:46:48;4.20;;;3.47;;
9124;SDS011;4597;48.730;9.114;2022-10-31T02:49:20;4.23;;;3.93;;
9124;SDS011;4597;48.730;9.114;2022-10-31T02:51:49;8.40;;;4.43;;
9124;SDS011;4597;48.730;9.114;2022-10-31T02:54:17;4.47;;;4.10;;
9124;SDS011;4597;48.730;9.114;2022-10-31T02:56:44;4.77;;;3.90;;
9124;SDS011;4597;48.730;9.114;2022-10-31T02:59:11;5.07;;;4.27;;
9124;SDS011;4597;48.730;9.114;2022-10-31T03:15:06;4.50;;;3.83;;
9124;SDS011;4597;48.730;9.114;2022-10-31T03:18:12;4.20;;;3.90;;
9124;SDS011;4597;48.730;9.114;2022-10-31T03:20:33;4.30;;;3.90;;
9124;SDS011;4597;48.730;9.114;2022-10-31T03:23:11;4.50;;;4.10;;
9124;SDS011;4597;48.730;9.114;2022-10-31T03:25:40;5.30;;;4.47;;
9124;SDS011;4597;48.730;9.114;2022-10-31T03:28:08;6.63;;;4.40;;
9124;SDS011;4597;48.730;9.114;2022-10-31T03:30:37;5.73;;;4.40;;
9124;SDS011;4597;48.730;9.114;2022-10-31T03:33:07;5.80;;;4.43;;
9124;SDS011;4597;48.730;9.114;2022-10-31T03:35:37;6.73;;;4.57;;
9124;SDS011;4597;48.730;9.114;2022-10-31T03:38:06;6.43;;;4.67;;
9124;SDS011;4597;48.730;9.114;2022-10-31T03:40:33;8.17;;;4.13;;
9124;SDS011;4597;48.730;9.114;2022-10-31T03:43:03;6.23;;;4.17;;
9124;SDS011;4597;48.730;9.114;2022-10-31T03:45:32;5.07;;;3.97;;
9124;SDS011;4597;48.730;9.114;2022-10-31T03:48:04;4.40;;;3.83;;
9124;SDS011;4597;48.730;9.114;2022-10-31T03:50:32;6.00;;;4.63;;
9124;SDS011;4597;48.730;9.114;2022-10-31T03:53:06;4.77;;;3.97;;
9124;SDS011;4597;48.730;9.114;2022-10-31T03:55:43;4.83;;;4.13;;
9124;SDS011;4597;48.730;9.114;2022-10-31T03:58:17;7.23;;;3.97;;
9124;SDS011;4597;48.730;9.114;2022-10-31T04:00:51;9.37;;;4.27;;
9124;SDS011;4597;48.730;9.114;2022-10-31T04:03:26;5.40;;;3.97;;
9124;SDS011;4597;48.730;9.114;2022-10-31T04:05:55;4.63;;;3.87;;
9124;SDS011;4597;48.730;9.114;2022-10-31T04:08:24;4.50;;;4.10;;
9124;SDS011;4597;48.730;9.114;2022-10-31T04:10:52;6.87;;;4.90;;
9124;SDS011;4597;48.730;9.114;2022-10-31T04:13:22;7.27;;;4.87;;
9124;SDS011;4597;48.730;9.114;2022-10-31T04:15:52;7.93;;;4.63;;
9124;SDS011;4597;48.730;9.114;2022-10-31T04:18:19;5.57;;;4.40;;
9124;SDS011;4597;48.730;9.114;2022-10-31T04:20:47;6.73;;;4.70;;
9124;SDS011;4597;48.730;9.114;2022-10-31T04:23:19;7.67;;;3.93;;
9124;SDS011;4597;48.730;9.114;2022-10-31T04:25:48;6.03;;;3.90;;
9124;SDS011;4597;48.730;9.114;2022-10-31T04:28:13;8.77;;;3.90;;
9124;SDS011;4597;48.730;9.114;2022-10-31T04:30:39;4.17;;;3.30;;
9124;SDS011;4597;48.730;9.114;2022-10-31T04:33:05;5.33;;;3.73;;
9124;SDS011;4597;48.730;9.114;2022-10-31T04:35:30;3.87;;;3.47;;
9124;SDS011;4597;48.730;9.114;2022-10-31T04:37:56;5.83;;;3.23;;
9124;SDS011;4597;48.730;9.114;2022-10-31T04:40:21;4.90;;;4.20;;
9124;SDS011;4597;48.730;9.114;2022-10-31T04:42:47;4.60;;;3.67;;
9124;SDS011;4597;48.730;9.114;2022-10-31T04:45:12;9.20;;;3.73;;
9124;SDS011;4597;48.730;9.114;2022-10-31T04:47:38;5.83;;;3.67;;
9124;SDS011;4597;48.730;9.114;2022-10-31T04:50:03;5.10;;;3.50;;
9124;SDS011;4597;48.730;9.114;2022-10-31T04:52:29;4.80;;;3.23;;
9124;SDS011;4597;48.730;9.114;2022-10-31T04:54:55;4.90;;;3.53;;
9124;SDS011;4597;48.730;9.114;2022-10-31T04:57:20;5.03;;;3.40;;
9124;SDS011;4597;48.730;9.114;2022-10-31T04:59:46;3.43;;;3.13;;
9124;SDS011;4597;48.730;9.114;2022-10-31T05:02:11;5.43;;;3.83;;
9124;SDS011;4597;48.730;9.114;2022-10-31T05:04:37;4.83;;;3.50;;
9124;SDS011;4597;48.730;9.114;2022-10-31T05:07:02;5.80;;;3.40;;
9124;SDS011;4597;48.730;9.114;2022-10-31T05:09:28;3.50;;;3.20;;
9124;SDS011;4597;48.730;9.114;2022-10-31T05:11:53;4.23;;;3.60;;
9124;SDS011;4597;48.730;9.114;2022-10-31T05:14:19;3.90;;;3.57;;
9124;SDS011;4597;48.730;9.114;2022-10-31T05:16:44;3.77;;;3.47;;
9124;SDS011;4597;48.730;9.114;2022-10-31T05:19:10;3.73;;;3.30;;
9124;SDS011;4597;48.730;9.114;2022-10-31T05:21:35;3.60;;;3.30;;
9124;SDS011;4597;48.730;9.114;2022-10-31T05:24:01;3.93;;;3.40;;
9124;SDS011;4597;48.730;9.114;2022-10-31T05:26:26;4.70;;;4.20;;
9124;SDS011;4597;48.730;9.114;2022-10-31T05:28:52;5.17;;;3.97;;
9124;SDS011;4597;48.730;9.114;2022-10-31T05:31:17;6.67;;;3.30;;
9124;SDS011;4597;48.730;9.114;2022-10-31T05:33:43;6.47;;;3.33;;
9124;SDS011;4597;48.730;9.114;2022-10-31T05:36:08;3.77;;;3.47;;
9124;SDS011;4597;48.730;9.114;2022-10-31T05:38:34;3.93;;;3.63;;
9124;SDS011;4597;48.730;9.114;2022-10-31T05:41:00;4.30;;;3.70;;
9124;SDS011;4597;48.730;9.114;2022-10-31T05:43:26;5.27;;;4.00;;
9124;SDS011;4597;48.730;9.114;2022-10-31T05:45:52;5.90;;;4.47;;
9124;SDS011;4597;48.730;9.114;2022-10-31T05:48:18;4.17;;;3.77;;
9124;SDS011;4597;48.730;9.114;2022-10-31T05:50:44;4.53;;;3.67;;
9124;SDS011;4597;48.730;9.114;2022-10-31T05:53:09;4.07;;;3.77;;
9124;SDS011;4597;48.730;9.114;2022-10-31T05:55:35;4.60;;;4.10;;
9124;SDS011;4597;48.730;9.114;2022-10-31T05:58:01;5.17;;;3.67;;
9124;SDS011;4597;48.730;9.114;2022-10-31T06:00:26;5.27;;;3.70;;
9124;SDS011;4597;48.730;9.114;2022-10-31T06:02:59;3.93;;;3.63;;
9124;SDS011;4597;48.730;9.114;2022-10-31T06:05:26;4.83;;;3.67;;
9124;SDS011;4597;48.730;9.114;2022-10-31T06:07:52;5.03;;;3.67;;
9124;SDS011;4597;48.730;9.114;2022-10-31T06:10:17;7.17;;;3.77;;
9124;SDS011;4597;48.730;9.114;2022-10-31T06:12:44;5.27;;;3.67;;
9124;SDS011;4597;48.730;9.114;2022-10-31T06:15:10;4.87;;;4.43;;
9124;SDS011;4597;48.730;9.114;2022-10-31T06:17:35;4.50;;;4.10;;
9124;SDS011;4597;48.730;9.114;2022-10-31T06:20:02;5.03;;;4.10;;
9124;SDS011;4597;48.730;9.114;2022-10-31T06:22:28;4.43;;;4.03;;
9124;SDS011;4597;48.730;9.114;2022-10-31T06:24:54;6.70;;;4.37;;
9124;SDS011;4597;48.730;9.114;2022-10-31T06:27:19;4.17;;;3.60;;
9124;SDS011;4597;48.730;9.114;2022-10-31T06:29:45;4.43;;;4.03;;
9124;SDS011;4597;48.730;9.114;2022-10-31T06:32:11;4.33;;;3.93;;
9124;SDS011;4597;48.730;9.114;2022-10-31T06:34:38;6.93;;;4.17;;
9124;SDS011;4597;48.730;9.114;2022-10-31T06:37:05;4.43;;;4.03;;
9124;SDS011;4597;48.730;9.114;2022-10-31T06:39:31;5.57;;;5.03;;
9124;SDS011;4597;48.730;9.114;2022-10-31T06:41:57;27.53;;;22.63;;
9124;SDS011;4597;48.730;9.114;2022-10-31T06:44:22;29.63;;;23.03;;
9124;SDS011;4597;48.730;9.114;2022-10-31T06:46:48;68.03;;;49.87;;
9124;SDS011;4597;48.730;9.114;2022-10-31T06:49:14;46.83;;;35.33;;
9124;SDS011;4597;48.730;9.114;2022-10-31T06:51:39;41.03;;;32.47;;
9124;SDS011;4597;48.730;9.114;2022-10-31T06:54:05;29.87;;;24.47;;
9124;SDS011;4597;48.730;9.114;2022-10-31T06:56:30;20.47;;;15.97;;
9124;SDS011;4597;48.730;9.114;2022-10-31T06:58:56;16.37;;;13.73;;
9124;SDS011;4597;48.730;9.114;2022-10-31T07:01:21;13.23;;;10.50;;
9124;SDS011;4597;48.730;9.114;2022-10-31T07:03:47;11.90;;;8.97;;
9124;SDS011;4597;48.730;9.114;2022-10-31T07:06:12;9.17;;;8.27;;
9124;SDS011;4597;48.730;9.114;2022-10-31T07:08:38;9.90;;;7.30;;
9124;SDS011;4597;48.730;9.114;2022-10-31T07:11:03;8.20;;;6.33;;
9124;SDS011;4597;48.730;9.114;2022-10-31T07:13:29;8.47;;;6.37;;
9124;SDS011;4597;48.730;9.114;2022-10-31T07:15:59;6.97;;;6.07;;
9124;SDS011;4597;48.730;9.114;2022-10-31T07:18:26;6.97;;;6.27;;
9124;SDS011;4597;48.730;9.114;2022-10-31T07:20:51;7.10;;;6.40;;
9124;SDS011;4597;48.730;9.114;2022-10-31T07:23:17;8.33;;;6.10;;
9124;SDS011;4597;48.730;9.114;2022-10-31T07:25:43;7.23;;;6.53;;
9124;SDS011;4597;48.730;9.114;2022-10-31T07:28:09;7.53;;;5.90;;
9124;SDS011;4597;48.730;9.114;2022-10-31T07:30:35;7.77;;;5.67;;
9124;SDS011;4597;48.730;9.114;2022-10-31T07:33:00;5.80;;;5.30;;
9124;SDS011;4597;48.730;9.114;2022-10-31T07:35:27;6.53;;;5.50;;
9124;SDS011;4597;48.730;9.114;2022-10-31T07:37:53;5.40;;;5.00;;
9124;SDS011;4597;48.730;9.114;2022-10-31T07:40:20;4.50;;;4.17;;
9124;SDS011;4597;48.730;9.114;2022-10-31T07:42:47;3.73;;;3.33;;
9124;SDS011;4597;48.730;9.114;2022-10-31T07:45:15;3.80;;;3.50;;
9124;SDS011;4597;48.730;9.114;2022-10-31T07:50:13;8.13;;;4.20;;
9124;SDS011;4597;48.730;9.114;2022-10-31T07:52:40;4.30;;;3.90;;
9124;SDS011;4597;48.730;9.114;2022-10-31T07:55:07;5.20;;;3.97;;
9124;SDS011;4597;48.730;9.114;2022-10-31T07:57:32;4.23;;;3.83;;
9124;SDS011;4597;48.730;9.114;2022-10-31T07:59:58;6.27;;;4.13;;
9124;SDS011;4597;48.730;9.114;2022-10-31T08:02:24;4.83;;;4.03;;
9124;SDS011;4597;48.730;9.114;2022-10-31T08:04:50;6.23;;;4.20;;
9124;SDS011;4597;48.730;9.114;2022-10-31T08:07:15;5.50;;;4.30;;
9124;SDS011;4597;48.730;9.114;2022-10-31T08:09:41;4.73;;;4.10;;
9124;SDS011;4597;48.730;9.114;2022-10-31T08:12:07;3.93;;;3.63;;
9124;SDS011;4597;48.730;9.114;2022-10-31T08:14:32;4.30;;;3.90;;
9124;SDS011;4597;48.730;9.114;2022-10-31T08:16:58;4.20;;;3.80;;
9124;SDS011;4597;48.730;9.114;2022-10-31T08:19:23;5.27;;;4.37;;
9124;SDS011;4597;48.730;9.114;2022-10-31T08:21:52;4.70;;;4.23;;
9124;SDS011;4597;48.730;9.114;2022-10-31T08:24:20;4.77;;;4.37;;
9124;SDS011;4597;48.730;9.114;2022-10-31T08:26:48;6.70;;;4.73;;
9124;SDS011;4597;48.730;9.114;2022-10-31T08:29:14;7.23;;;4.20;;
9124;SDS011;4597;48.730;9.114;2022-10-31T08:31:40;5.17;;;4.50;;
9124;SDS011;4597;48.730;9.114;2022-10-31T08:34:06;7.30;;;4.63;;
9124;SDS011;4597;48.730;9.114;2022-10-31T08:36:32;5.43;;;4.60;;
9124;SDS011;4597;48.730;9.114;2022-10-31T08:38:58;5.43;;;4.80;;
9124;SDS011;4597;48.730;9.114;2022-10-31T08:41:23;5.27;;;4.60;;
9124;SDS011;4597;48.730;9.114;2022-10-31T08:43:49;5.13;;;4.60;;
9124;SDS011;4597;48.730;9.114;2022-10-31T08:46:14;5.07;;;4.27;;
9124;SDS011;4597;48.730;9.114;2022-10-31T08:48:40;4.80;;;4.30;;
9124;SDS011;4597;48.730;9.114;2022-10-31T08:51:06;4.37;;;3.97;;
9124;SDS011;4597;48.730;9.114;2022-10-31T08:53:33;5.93;;;4.53;;
9124;SDS011;4597;48.730;9.114;2022-10-31T08:55:58;5.37;;;4.70;;
9124;SDS011;4597;48.730;9.114;2022-10-31T08:58:24;7.27;;;5.23;;
9124;SDS011;4597;48.730;9.114;2022-10-31T09:00:51;5.03;;;4.53;;
9124;SDS011;4597;48.730;9.114;2022-10-31T09:03:21;4.70;;;4.30;;
9124;SDS011;4597;48.730;9.114;2022-10-31T09:05:54;5.37;;;4.57;;
9124;SDS011;4597;48.730;9.114;2022-10-31T09:08:21;4.97;;;4.50;;
9124;SDS011;4597;48.730;9.114;2022-10-31T09:10:47;5.07;;;4.67;;
9124;SDS011;4597;48.730;9.114;2022-10-31T09:13:17;6.73;;;4.17;;
9124;SDS011;4597;48.730;9.114;2022-10-31T09:15:45;8.10;;;4.93;;
9124;SDS011;4597;48.730;9.114;2022-10-31T09:18:13;5.30;;;4.50;;
9124;SDS011;4597;48.730;9.114;2022-10-31T09:20:41;7.37;;;5.00;;
9124;SDS011;4597;48.730;9.114;2022-10-31T09:23:11;7.07;;;5.10;;
9124;SDS011;4597;48.730;9.114;2022-10-31T09:25:39;7.60;;;5.50;;
9124;SDS011;4597;48.730;9.114;2022-10-31T09:28:06;7.17;;;5.17;;
9124;SDS011;4597;48.730;9.114;2022-10-31T09:30:34;5.50;;;4.93;;
9124;SDS011;4597;48.730;9.114;2022-10-31T09:33:01;6.87;;;5.10;;
9124;SDS011;4597;48.730;9.114;2022-10-31T09:35:29;7.60;;;5.50;;
9124;SDS011;4597;48.730;9.114;2022-10-31T09:37:55;6.97;;;4.97;;
9124;SDS011;4597;48.730;9.114;2022-10-31T09:40:23;6.40;;;5.60;;
9124;SDS011;4597;48.730;9.114;2022-10-31T09:43:18;5.80;;;5.30;;
9124;SDS011;4597;48.730;9.114;2022-10-31T09:46:13;7.40;;;5.37;;
9124;SDS011;4597;48.730;9.114;2022-10-31T09:48:58;5.63;;;5.07;;
9124;SDS011;4597;48.730;9.114;2022-10-31T09:51:57;6.17;;;5.03;;
9124;SDS011;4597;48.730;9.114;2022-10-31T09:54:33;8.17;;;5.67;;
9124;SDS011;4597;48.730;9.114;2022-10-31T09:57:03;6.10;;;5.50;;
9124;SDS011;4597;48.730;9.114;2022-10-31T09:59:31;8.53;;;5.90;;
9124;SDS011;4597;48.730;9.114;2022-10-31T10:02:03;6.93;;;5.90;;
9124;SDS011;4597;48.730;9.114;2022-10-31T10:04:44;7.40;;;6.13;;
9124;SDS011;4597;48.730;9.114;2022-10-31T10:09:57;6.10;;;5.50;;
9124;SDS011;4597;48.730;9.114;2022-10-31T10:12:33;7.80;;;5.17;;
9124;SDS011;4597;48.730;9.114;2022-10-31T10:20:57;7.07;;;5.87;;
9124;SDS011;4597;48.730;9.114;2022-10-31T10:26:29;7.23;;;5.63;;
9124;SDS011;4597;48.730;9.114;2022-10-31T10:29:02;7.47;;;5.90;;
9124;SDS011;4597;48.730;9.114;2022-10-31T10:31:48;6.67;;;5.70;;
9124;SDS011;4597;48.730;9.114;2022-10-31T10:34:18;8.90;;;5.97;;
9124;SDS011;4597;48.730;9.114;2022-10-31T10:39:33;13.47;;;6.20;;
9124;SDS011;4597;48.730;9.114;2022-10-31T10:42:14;9.27;;;6.50;;
9124;SDS011;4597;48.730;9.114;2022-10-31T10:44:59;6.70;;;6.17;;
9124;SDS011;4597;48.730;9.114;2022-10-31T10:47:52;8.00;;;6.47;;
9124;SDS011;4597;48.730;9.114;2022-10-31T10:50:34;9.03;;;6.47;;
9124;SDS011;4597;48.730;9.114;2022-10-31T10:55:59;9.33;;;6.87;;
9124;SDS011;4597;48.730;9.114;2022-10-31T10:58:40;10.13;;;6.70;;
9124;SDS011;4597;48.730;9.114;2022-10-31T11:01:14;7.13;;;6.23;;
9124;SDS011;4597;48.730;9.114;2022-10-31T11:03:40;8.53;;;6.90;;
9124;SDS011;4597;48.730;9.114;2022-10-31T11:06:16;10.77;;;6.93;;
9124;SDS011;4597;48.730;9.114;2022-10-31T11:08:50;7.50;;;6.53;;
9124;SDS011;4597;48.730;9.114;2022-10-31T11:13:41;9.53;;;6.87;;
9124;SDS011;4597;48.730;9.114;2022-10-31T11:16:10;8.87;;;6.57;;
9124;SDS011;4597;48.730;9.114;2022-10-31T11:18:39;9.27;;;7.07;;
9124;SDS011;4597;48.730;9.114;2022-10-31T11:21:26;7.20;;;6.50;;
9124;SDS011;4597;48.730;9.114;2022-10-31T11:26:51;8.07;;;6.27;;
9124;SDS011;4597;48.730;9.114;2022-10-31T11:29:27;7.47;;;6.50;;
9124;SDS011;4597;48.730;9.114;2022-10-31T11:31:57;7.30;;;6.50;;
9124;SDS011;4597;48.730;9.114;2022-10-31T11:34:42;8.40;;;6.40;;
9124;SDS011;4597;48.730;9.114;2022-10-31T11:37:18;8.23;;;7.00;;
9124;SDS011;4597;48.730;9.114;2022-10-31T11:39:49;8.33;;;6.70;;
9124;SDS011;4597;48.730;9.114;2022-10-31T11:42:24;8.97;;;6.47;;
9124;SDS011;4597;48.730;9.114;2022-10-31T11:44:54;8.30;;;6.47;;
9124;SDS011;4597;48.730;9.114;2022-10-31T11:47:23;13.80;;;8.00;;
9124;SDS011;4597;48.730;9.114;2022-10-31T11:49:52;7.23;;;6.53;;
9124;SDS011;4597;48.730;9.114;2022-10-31T11:52:20;8.73;;;6.63;;
9124;SDS011;4597;48.730;9.114;2022-10-31T11:54:50;10.10;;;7.80;;
9124;SDS011;4597;48.730;9.114;2022-10-31T11:57:30;9.73;;;6.90;;
9124;SDS011;4597;48.730;9.114;2022-10-31T11:59:58;7.63;;;6.93;;
9124;SDS011;4597;48.730;9.114;2022-10-31T12:02:25;9.10;;;6.80;;
9124;SDS011;4597;48.730;9.114;2022-10-31T12:05:17;10.93;;;7.20;;
9124;SDS011;4597;48.730;9.114;2022-10-31T12:07:48;8.70;;;6.67;;
9124;SDS011;4597;48.730;9.114;2022-10-31T12:10:14;10.30;;;7.10;;
9124;SDS011;4597;48.730;9.114;2022-10-31T12:15:49;8.40;;;7.70;;
9124;SDS011;4597;48.730;9.114;2022-10-31T12:18:36;9.17;;;7.40;;
9124;SDS011;4597;48.730;9.114;2022-10-31T12:21:37;8.43;;;7.57;;
9124;SDS011;4597;48.730;9.114;2022-10-31T12:30:13;9.47;;;8.57;;
9124;SDS011;4597;48.730;9.114;2022-10-31T12:32:51;11.53;;;7.87;;
9124;SDS011;4597;48.730;9.114;2022-10-31T12:35:59;9.27;;;8.20;;
9124;SDS011;4597;48.730;9.114;2022-10-31T12:41:46;10.43;;;8.27;;
9124;SDS011;4597;48.730;9.114;2022-10-31T12:47:49;9.27;;;7.13;;
9124;SDS011;4597;48.730;9.114;2022-10-31T12:50:43;9.70;;;8.00;;
9124;SDS011;4597;48.730;9.114;2022-10-31T12:53:58;11.50;;;8.43;;
9124;SDS011;4597;48.730;9.114;2022-10-31T13:01:56;10.73;;;8.20;;
9124;SDS011;4597;48.730;9.114;2022-10-31T13:04:36;11.03;;;7.90;;
9124;SDS011;4597;48.730;9.114;2022-10-31T13:07:09;11.80;;;8.10;;
9124;SDS011;4597;48.730;9.114;2022-10-31T13:09:49;10.10;;;8.50;;
9124;SDS011;4597;48.730;9.114;2022-10-31T13:12:29;11.20;;;8.30;;
9124;SDS011;4597;48.730;9.114;2022-10-31T13:14:58;10.90;;;8.37;;
9124;SDS011;4597;48.730;9.114;2022-10-31T13:17:35;11.63;;;8.47;;
9124;SDS011;4597;48.730;9.114;2022-10-31T13:23:05;10.43;;;7.87;;
9124;SDS011;4597;48.730;9.114;2022-10-31T13:25:54;11.13;;;8.13;;
9124;SDS011;4597;48.730;9.114;2022-10-31T13:28:35;15.03;;;8.33;;
9124;SDS011;4597;48.730;9.114;2022-10-31T13:31:22;8.97;;;8.00;;
9124;SDS011;4597;48.730;9.114;2022-10-31T13:37:26;10.97;;;8.20;;
9124;SDS011;4597;48.730;9.114;2022-10-31T13:45:19;12.57;;;8.07;;
9124;SDS011;4597;48.730;9.114;2022-10-31T13:47:56;11.63;;;8.00;;
9124;SDS011;4597;48.730;9.114;2022-10-31T13:50:24;11.23;;;7.97;;
9124;SDS011;4597;48.730;9.114;2022-10-31T13:55:44;13.03;;;7.67;;
9124;SDS011;4597;48.730;9.114;2022-10-31T13:58:28;10.63;;;6.90;;
9124;SDS011;4597;48.730;9.114;2022-10-31T14:01:05;10.23;;;7.50;;
9124;SDS011;4597;48.730;9.114;2022-10-31T14:03:44;7.93;;;7.03;;
9124;SDS011;4597;48.730;9.114;2022-10-31T14:06:12;10.33;;;6.90;;
9124;SDS011;4597;48.730;9.114;2022-10-31T14:08:41;10.03;;;7.53;;
9124;SDS011;4597;48.730;9.114;2022-10-31T14:11:22;11.23;;;7.90;;
9124;SDS011;4597;48.730;9.114;2022-10-31T14:13:52;8.77;;;7.30;;
9124;SDS011;4597;48.730;9.114;2022-10-31T14:16:21;12.33;;;8.27;;
9124;SDS011;4597;48.730;9.114;2022-10-31T14:21:35;9.47;;;7.20;;
9124;SDS011;4597;48.730;9.114;2022-10-31T14:24:13;9.70;;;7.30;;
9124;SDS011;4597;48.730;9.114;2022-10-31T14:26:52;10.17;;;8.13;;
9124;SDS011;4597;48.730;9.114;2022-10-31T14:40:20;14.23;;;8.20;;
9124;SDS011;4597;48.730;9.114;2022-10-31T14:43:19;10.37;;;7.80;;
9124;SDS011;4597;48.730;9.114;2022-10-31T14:51:38;10.53;;;8.33;;
9124;SDS011;4597;48.730;9.114;2022-10-31T14:54:07;12.93;;;9.00;;
9124;SDS011;4597;48.730;9.114;2022-10-31T14:56:43;10.37;;;8.47;;
9124;SDS011;4597;48.730;9.114;2022-10-31T14:59:15;13.40;;;8.17;;
9124;SDS011;4597;48.730;9.114;2022-10-31T15:01:51;11.63;;;9.10;;
9124;SDS011;4597;48.730;9.114;2022-10-31T15:04:34;13.13;;;8.70;;
9124;SDS011;4597;48.730;9.114;2022-10-31T15:07:14;10.20;;;8.23;;
9124;SDS011;4597;48.730;9.114;2022-10-31T15:09:42;10.07;;;7.60;;
9124;SDS011;4597;48.730;9.114;2022-10-31T15:12:41;8.07;;;7.00;;
9124;SDS011;4597;48.730;9.114;2022-10-31T15:15:13;9.33;;;7.40;;
9124;SDS011;4597;48.730;9.114;2022-10-31T15:17:43;13.07;;;8.67;;
9124;SDS011;4597;48.730;9.114;2022-10-31T15:20:11;9.97;;;7.87;;
9124;SDS011;4597;48.730;9.114;2022-10-31T15:22:41;10.03;;;7.67;;
9124;SDS011;4597;48.730;9.114;2022-10-31T15:25:21;9.83;;;7.60;;
9124;SDS011;4597;48.730;9.114;2022-10-31T15:27:48;10.40;;;7.73;;
9124;SDS011;4597;48.730;9.114;2022-10-31T15:30:21;12.17;;;8.23;;
9124;SDS011;4597;48.730;9.114;2022-10-31T15:32:49;10.53;;;8.03;;
9124;SDS011;4597;48.730;9.114;2022-10-31T15:35:20;11.90;;;8.10;;
9124;SDS011;4597;48.730;9.114;2022-10-31T15:37:49;10.93;;;8.60;;
9124;SDS011;4597;48.730;9.114;2022-10-31T15:40:15;11.23;;;8.87;;
9124;SDS011;4597;48.730;9.114;2022-10-31T15:42:43;10.83;;;8.70;;
9124;SDS011;4597;48.730;9.114;2022-10-31T15:45:19;10.97;;;7.87;;
9124;SDS011;4597;48.730;9.114;2022-10-31T15:47:52;17.57;;;9.27;;
9124;SDS011;4597;48.730;9.114;2022-10-31T15:50:36;10.87;;;9.63;;
9124;SDS011;4597;48.730;9.114;2022-10-31T15:53:17;12.00;;;9.50;;
9124;SDS011;4597;48.730;9.114;2022-10-31T15:55:56;15.00;;;10.50;;
9124;SDS011;4597;48.730;9.114;2022-10-31T15:58:24;11.03;;;9.67;;
9124;SDS011;4597;48.730;9.114;2022-10-31T16:00:58;12.73;;;10.20;;
9124;SDS011;4597;48.730;9.114;2022-10-31T16:03:31;11.83;;;9.30;;
9124;SDS011;4597;48.730;9.114;2022-10-31T16:05:59;11.93;;;9.57;;
9124;SDS011;4597;48.730;9.114;2022-10-31T16:10:57;13.10;;;9.47;;
9124;SDS011;4597;48.730;9.114;2022-10-31T16:13:28;13.47;;;9.47;;
9124;SDS011;4597;48.730;9.114;2022-10-31T16:15:59;11.53;;;9.17;;
9124;SDS011;4597;48.730;9.114;2022-10-31T16:18:27;10.73;;;9.60;;
9124;SDS011;4597;48.730;9.114;2022-10-31T16:20:55;10.33;;;9.17;;
9124;SDS011;4597;48.730;9.114;2022-10-31T16:23:22;13.37;;;10.00;;
9124;SDS011;4597;48.730;9.114;2022-10-31T16:25:50;13.37;;;9.90;;
9124;SDS011;4597;48.730;9.114;2022-10-31T16:28:21;13.27;;;10.10;;
9124;SDS011;4597;48.730;9.114;2022-10-31T16:30:49;9.57;;;8.60;;
9124;SDS011;4597;48.730;9.114;2022-10-31T16:33:21;11.87;;;9.20;;
9124;SDS011;4597;48.730;9.114;2022-10-31T16:35:52;9.43;;;8.43;;
9124;SDS011;4597;48.730;9.114;2022-10-31T16:38:18;12.07;;;8.60;;
9124;SDS011;4597;48.730;9.114;2022-10-31T16:40:44;10.90;;;8.93;;
9124;SDS011;4597;48.730;9.114;2022-10-31T16:43:11;12.93;;;9.07;;
9124;SDS011;4597;48.730;9.114;2022-10-31T16:45:41;11.60;;;8.47;;
9124;SDS011;4597;48.730;9.114;2022-10-31T16:48:13;9.17;;;7.83;;
9124;SDS011;4597;48.730;9.114;2022-10-31T16:50:41;12.13;;;8.80;;
9124;SDS011;4597;48.730;9.114;2022-10-31T16:53:08;12.17;;;9.33;;
9124;SDS011;4597;48.730;9.114;2022-10-31T16:55:34;12.20;;;9.53;;
9124;SDS011;4597;48.730;9.114;2022-10-31T16:58:07;11.57;;;8.93;;
9124;SDS011;4597;48.730;9.114;2022-10-31T17:00:40;14.50;;;10.03;;
9124;SDS011;4597;48.730;9.114;2022-10-31T17:03:07;12.83;;;10.23;;
9124;SDS011;4597;48.730;9.114;2022-10-31T17:05:34;12.67;;;10.73;;
9124;SDS011;4597;48.730;9.114;2022-10-31T17:08:00;18.57;;;14.13;;
9124;SDS011;4597;48.730;9.114;2022-10-31T17:10:26;18.70;;;14.17;;
9124;SDS011;4597;48.730;9.114;2022-10-31T17:12:52;15.53;;;13.00;;
9124;SDS011;4597;48.730;9.114;2022-10-31T17:15:19;16.77;;;12.30;;
9124;SDS011;4597;48.730;9.114;2022-10-31T17:17:50;16.10;;;12.07;;
9124;SDS011;4597;48.730;9.114;2022-10-31T17:22:55;14.00;;;11.20;;
9124;SDS011;4597;48.730;9.114;2022-10-31T17:25:23;17.37;;;10.90;;
9124;SDS011;4597;48.730;9.114;2022-10-31T17:27:50;14.90;;;10.70;;